Sartell, Minnesota
Current Conditions -  °F | °C
As of 4:53 PM on Thursday 18 Dec 2014 (Local Time) from KSTC Reporting Station
Overcast Overcast  
Wind Chill: 21°   Ceiling: 1600
Heat Index: 21°   Visibility: 10mi
Dew Point: 14°   Wind: 3mph
Humidity: 74%   Direction: 110°ESE
Pressure: 30.25"   Gusts: NA
Location:  45.62°N, 94.2°W
Report Text: KSTC 182253Z 11003KT 10SM OVC016 M06/M10 A3025 RMK AO2 SLP272 T10611100
Loading
Personal Weather Stations






























Interactive Weather Map New forecast layout! Learn more

10-Day Weather Forecast

Advertisements
Track Severe Weather on mobile